Decoded Metar for KHUF (TERRE HAUTE in IN, USA) (IATA:HUF) | Meteo·Mobile Aviation Weather
aviador You're here:

KHUF Decoded Metar

TERRE HAUTE in IN, USA
Report Time2018-11-18 23:53:00
UTC Time2018-11-19 00:31:00
Flight Rules mvfr MVFR
Wind360° at 06 kt
W.Decomp.*RWY 36: 6.0 kt HW 0.2 kt RCW
RWY 32: 4.5 kt HW 4.0 kt RCW
RWY 05: 4.0 kt HW 4.5 kt LCW
Visibility9999 m
Phenomena:N/A
Clouds:Overcast 014 Hf
Expected CloudBase > 800 ft AGL from Temp-Dew spread
Ceiling1,400 ft
Temp05°C (ISA -9)
Dew Point03°C (87% RH)
AAT1.3°C
QNH1022 hPa
Density Alt-679 ft
Elevation587 ft
Report Wrong Elevation
Raw Report
KHUF 182353Z 36006KT 9SM OVC014 05/03 A3019 RMK AO2 SLP226
T00500028 10083 20050 51004=

Extra information for KHUF:More info

Metar Taf Metar & Taf Last 4 Metars F.Rules Stats Wind Profile Meteogram Temp Stats Airport Information Weather charts Add Link Nearby VenuesMetar ALERT Operation Metar Decoded Social comments

AIRNAV info for KHUF